createdAt,value
2018-02-19T00:00:20.041Z,21.10
2018-02-19T00:01:20.253Z,21.10
2018-02-19T00:02:20.464Z,21.78
2018-02-19T00:03:21.361Z,21.30
2018-02-19T00:04:21.366Z,21.20
2018-02-19T00:05:21.960Z,21.10
2018-02-19T00:06:21.474Z,21.20
2018-02-19T00:07:21.687Z,21.68
2018-02-19T00:08:21.894Z,21.58
2018-02-19T00:09:22.103Z,21.78
2018-02-19T00:10:22.860Z,21.78
2018-02-19T00:11:22.530Z,21.78
2018-02-19T00:12:22.719Z,21.10
2018-02-19T00:13:23.862Z,21.97
2018-02-19T00:14:23.138Z,21.10
2018-02-19T00:15:23.338Z,21.10
2018-02-19T00:16:23.562Z,21.20
2018-02-19T00:17:23.782Z,21.97
2018-02-19T00:18:23.966Z,21.10
2018-02-19T00:19:24.181Z,21.97
2018-02-19T00:20:24.389Z,21.39
2018-02-19T00:21:24.612Z,21.10
2018-02-19T00:22:24.821Z,21.10
2018-02-19T00:23:25.037Z,21.30
2018-02-19T00:24:25.256Z,21.97
2018-02-19T00:25:25.456Z,21.30
2018-02-19T00:26:25.665Z,21.20
2018-02-19T00:27:25.881Z,21.10
2018-02-19T00:28:26.083Z,21.30
2018-02-19T00:29:26.312Z,21.30
2018-02-19T00:30:26.507Z,21.58
2018-02-19T00:31:27.458Z,21.01
2018-02-19T00:32:26.987Z,22.06
2018-02-19T00:33:27.868Z,21.30
2018-02-19T00:34:27.392Z,21.97
2018-02-19T00:35:27.610Z,21.97
2018-02-19T00:36:27.816Z,21.30
2018-02-19T00:37:28.027Z,21.01
2018-02-19T00:38:28.241Z,21.39
2018-02-19T00:39:28.450Z,21.10
2018-02-19T00:40:30.426Z,21.88
2018-02-19T00:41:29.024Z,21.10
2018-02-19T00:42:29.243Z,21.30
2018-02-19T00:43:29.448Z,21.10
2018-02-19T00:44:30.379Z,21.58
2018-02-19T00:45:29.870Z,21.39
2018-02-19T00:46:30.088Z,21.20
2018-02-19T00:47:30.871Z,21.10
2018-02-19T00:48:30.511Z,21.30
2018-02-19T00:49:30.727Z,21.39
2018-02-19T00:50:30.934Z,21.30
2018-02-19T00:51:31.141Z,21.39
2018-02-19T00:52:31.359Z,21.20
2018-02-19T00:53:31.569Z,21.30
2018-02-19T00:54:31.774Z,21.20
2018-02-19T00:55:31.986Z,21.01
2018-02-19T00:56:32.202Z,21.20
2018-02-19T00:57:32.409Z,21.10
2018-02-19T00:58:32.627Z,21.30
2018-02-19T00:59:32.830Z,21.01
2018-02-19T01:00:33.052Z,21.30
2018-02-19T01:01:33.256Z,21.10
2018-02-19T01:02:33.483Z,21.30
2018-02-19T01:03:33.673Z,21.10
2018-02-19T01:04:34.470Z,21.20
2018-02-19T01:05:34.879Z,21.30
2018-02-19T01:06:34.421Z,21.30
2018-02-19T01:07:34.636Z,21.30
2018-02-19T01:08:35.372Z,21.20
2018-02-19T01:09:35.876Z,21.20
2018-02-19T01:10:35.274Z,21.48
2018-02-19T01:11:35.477Z,21.48
2018-02-19T01:12:36.377Z,21.10
2018-02-19T01:13:35.894Z,20.91
2018-02-19T01:14:36.110Z,21.20
2018-02-19T01:15:36.357Z,21.20
2018-02-19T01:16:36.531Z,21.20
2018-02-19T01:17:36.752Z,21.58
2018-02-19T01:18:37.877Z,20.91
2018-02-19T01:19:37.888Z,21.30
2018-02-19T01:20:37.384Z,21.78
2018-02-19T01:21:37.614Z,21.20
2018-02-19T01:22:37.803Z,21.20
2018-02-19T01:23:38.019Z,21.20
2018-02-19T01:24:38.228Z,21.20
2018-02-19T01:25:38.452Z,21.30
2018-02-19T01:26:38.657Z,21.20
2018-02-19T01:27:38.868Z,21.01
2018-02-19T01:28:39.083Z,21.58
2018-02-19T01:29:39.879Z,21.01
2018-02-19T01:30:39.502Z,21.48
2018-02-19T01:31:40.378Z,21.10
2018-02-19T01:32:39.910Z,21.20
2018-02-19T01:33:40.992Z,21.20
2018-02-19T01:34:40.539Z,21.20
2018-02-19T01:35:40.721Z,21.20
2018-02-19T01:36:40.924Z,21.01
2018-02-19T01:37:41.882Z,21.01
2018-02-19T01:38:41.332Z,21.20
2018-02-19T01:39:41.561Z,21.10
2018-02-19T01:40:41.748Z,21.20
2018-02-19T01:41:41.952Z,21.48
2018-02-19T01:42:42.179Z,21.48
2018-02-19T01:43:42.394Z,20.91
2018-02-19T01:44:42.600Z,21.10
2018-02-19T01:45:43.380Z,21.20
2018-02-19T01:46:43.018Z,21.01
2018-02-19T01:47:43.215Z,20.91
2018-02-19T01:48:43.428Z,21.01
2018-02-19T01:49:43.632Z,21.20
2018-02-19T01:50:43.856Z,21.01
2018-02-19T01:51:44.883Z,21.01
2018-02-19T01:52:44.252Z,21.01
2018-02-19T01:53:44.470Z,21.01
2018-02-19T01:54:44.690Z,21.20
2018-02-19T01:55:45.383Z,21.01
2018-02-19T01:56:51.204Z,21.01
2018-02-19T01:57:51.562Z,20.91
2018-02-19T01:58:51.918Z,21.20
2018-02-19T01:59:52.289Z,21.20
2018-02-19T02:00:52.654Z,21.01
2018-02-19T02:01:53.994Z,20.91
2018-02-19T02:02:53.209Z,20.91
2018-02-19T02:03:53.584Z,21.20
2018-02-19T02:04:47.866Z,21.10
2018-02-19T02:05:48.047Z,21.78
2018-02-19T02:06:48.260Z,21.10
2018-02-19T02:07:48.469Z,21.10
2018-02-19T02:08:48.686Z,21.10
2018-02-19T02:09:48.922Z,20.91
2018-02-19T02:10:49.110Z,21.88
2018-02-19T02:11:49.322Z,21.20
2018-02-19T02:12:49.533Z,21.20
2018-02-19T02:13:49.744Z,21.20
2018-02-19T02:14:49.957Z,21.20
2018-02-19T02:15:50.167Z,21.10
2018-02-19T02:16:50.378Z,21.10
2018-02-19T02:17:50.589Z,21.01
2018-02-19T02:18:50.800Z,21.88
2018-02-19T02:19:51.013Z,21.20
2018-02-19T02:20:51.226Z,21.20
2018-02-19T02:21:51.443Z,21.78
2018-02-19T02:25:22.369Z,21.20
2018-02-19T02:26:22.581Z,21.10
2018-02-19T02:27:22.788Z,21.20
2018-02-19T02:28:23.002Z,21.10
2018-02-19T02:29:23.208Z,21.78
2018-02-19T02:30:23.419Z,21.78
2018-02-19T02:31:23.630Z,21.20
2018-02-19T02:32:23.844Z,21.10
2018-02-19T02:33:24.056Z,21.20
2018-02-19T02:34:24.266Z,21.10
2018-02-19T02:35:24.479Z,21.20
2018-02-19T02:36:24.689Z,20.91
2018-02-19T02:37:24.927Z,21.20
2018-02-19T02:38:25.109Z,21.10
2018-02-19T02:41:56.257Z,21.20
2018-02-19T02:42:56.480Z,21.10
2018-02-19T02:43:56.692Z,21.10
2018-02-19T02:44:56.904Z,21.68
2018-02-19T02:45:57.112Z,21.20
2018-02-19T02:46:57.322Z,21.20
2018-02-19T02:47:57.533Z,21.10
2018-02-19T02:48:57.745Z,21.20
2018-02-19T02:49:57.956Z,21.10
2018-02-19T02:50:58.170Z,21.01
2018-02-19T02:51:58.379Z,21.68
2018-02-19T02:52:58.595Z,21.10
2018-02-19T02:53:58.809Z,21.01
2018-02-19T02:54:59.017Z,21.01
2018-02-19T02:55:59.225Z,21.01
2018-02-19T02:56:59.438Z,21.10
2018-02-19T02:57:59.650Z,21.10
2018-02-19T02:58:59.862Z,21.01
2018-02-19T03:00:00.083Z,21.01
2018-02-19T03:01:00.290Z,21.20
2018-02-19T03:02:00.501Z,21.39
2018-02-19T03:03:00.741Z,21.30
2018-02-19T03:04:00.922Z,21.01
2018-02-19T03:05:01.135Z,21.68
2018-02-19T03:06:01.347Z,21.39
2018-02-19T03:07:01.558Z,21.01
2018-02-19T03:08:01.767Z,21.20
2018-02-19T03:09:01.979Z,21.48
2018-02-19T03:10:02.192Z,21.01
2018-02-19T03:11:02.402Z,21.01
2018-02-19T03:12:02.614Z,21.10
2018-02-19T03:13:02.825Z,21.68
2018-02-19T03:14:03.039Z,21.20
2018-02-19T03:15:03.248Z,21.20
2018-02-19T03:16:03.462Z,21.10
2018-02-19T03:17:03.676Z,21.10
2018-02-19T03:18:03.888Z,21.20
2018-02-19T03:19:04.094Z,21.20
2018-02-19T03:20:04.308Z,21.20
2018-02-19T03:21:04.519Z,21.10
2018-02-19T03:22:04.730Z,21.39
2018-02-19T03:23:04.943Z,21.39
2018-02-19T03:24:05.154Z,21.30
2018-02-19T03:25:05.364Z,21.30
2018-02-19T03:26:05.576Z,21.20
2018-02-19T03:27:05.788Z,21.20
2018-02-19T03:28:06.000Z,21.20
2018-02-19T03:29:06.211Z,21.20
2018-02-19T03:30:06.423Z,21.30
2018-02-19T03:31:06.634Z,21.20
2018-02-19T03:32:06.845Z,21.20
2018-02-19T03:33:07.056Z,21.10
2018-02-19T03:34:07.268Z,21.10
2018-02-19T03:35:07.480Z,21.10
2018-02-19T03:36:07.692Z,21.20
2018-02-19T03:37:07.902Z,21.20
2018-02-19T03:38:08.114Z,21.20
2018-02-19T03:39:08.332Z,21.10
2018-02-19T03:40:10.087Z,21.20
2018-02-19T03:41:08.953Z,21.10
2018-02-19T03:42:09.166Z,21.20
2018-02-19T03:43:09.377Z,21.10
2018-02-19T03:44:09.589Z,21.30
2018-02-19T03:45:09.806Z,21.30
2018-02-19T03:46:10.013Z,21.10
2018-02-19T03:47:11.085Z,21.20
2018-02-19T03:48:10.416Z,21.20
2018-02-19T03:49:10.626Z,21.01
2018-02-19T03:50:10.837Z,21.01
2018-02-19T03:51:11.577Z,21.10
2018-02-19T03:52:11.258Z,21.01
2018-02-19T03:53:11.470Z,21.20
2018-02-19T03:54:11.681Z,21.01
2018-02-19T03:55:11.889Z,21.10
2018-02-19T03:56:12.101Z,21.10
2018-02-19T03:57:12.311Z,21.30
2018-02-19T03:58:12.527Z,21.30
2018-02-19T03:59:12.733Z,21.10
2018-02-19T04:00:12.944Z,21.10
2018-02-19T04:01:13.156Z,21.10
2018-02-19T04:02:13.370Z,21.20
2018-02-19T04:03:13.576Z,21.10
2018-02-19T04:04:13.788Z,21.10
2018-02-19T04:05:13.999Z,21.20
2018-02-19T04:06:14.210Z,21.20
2018-02-19T04:07:14.421Z,21.30
2018-02-19T04:08:14.633Z,21.20
2018-02-19T04:09:14.842Z,21.30
2018-02-19T04:10:15.054Z,21.20
2018-02-19T04:11:15.265Z,21.10
2018-02-19T04:12:15.477Z,21.10
2018-02-19T04:13:15.687Z,21.20
2018-02-19T04:14:15.897Z,21.10
2018-02-19T04:15:16.107Z,21.30
2018-02-19T04:16:16.318Z,21.30
2018-02-19T04:17:16.530Z,21.20
2018-02-19T04:18:16.744Z,21.20
2018-02-19T04:19:16.950Z,21.30
2018-02-19T04:20:17.161Z,21.10
2018-02-19T04:21:17.373Z,21.10
2018-02-19T04:22:17.583Z,21.10
2018-02-19T04:23:17.796Z,21.20
2018-02-19T04:24:18.003Z,21.10
2018-02-19T04:25:18.232Z,21.10
2018-02-19T04:26:18.409Z,21.30
2018-02-19T04:27:18.621Z,21.01
2018-02-19T04:28:18.833Z,21.10
2018-02-19T04:29:19.048Z,21.39
2018-02-19T04:30:19.247Z,21.30
2018-02-19T04:31:19.460Z,21.20
2018-02-19T04:32:19.668Z,21.10
2018-02-19T04:33:19.881Z,21.20
2018-02-19T04:34:20.092Z,21.30
2018-02-19T04:35:20.299Z,21.10
2018-02-19T04:36:20.516Z,21.10
2018-02-19T04:37:20.720Z,21.10
2018-02-19T04:38:20.938Z,21.10
2018-02-19T04:39:21.172Z,21.10
2018-02-19T04:40:21.354Z,21.20
2018-02-19T04:41:21.570Z,21.10
2018-02-19T04:42:21.802Z,21.20
2018-02-19T04:43:21.994Z,21.20
2018-02-19T04:44:22.207Z,21.10
2018-02-19T04:45:23.120Z,21.01
2018-02-19T04:46:22.611Z,21.01
2018-02-19T04:47:22.825Z,21.30
2018-02-19T04:48:24.091Z,21.20
2018-02-19T04:49:24.097Z,21.10
2018-02-19T04:50:29.668Z,21.30
2018-02-19T04:51:30.033Z,21.01
2018-02-19T04:52:30.480Z,21.20
2018-02-19T04:53:31.623Z,21.10
2018-02-19T04:54:30.842Z,21.10
2018-02-19T04:55:31.252Z,21.10
2018-02-19T04:56:31.382Z,21.10
2018-02-19T04:57:31.743Z,21.20
2018-02-19T04:58:25.996Z,21.10
2018-02-19T04:59:26.222Z,21.10
2018-02-19T05:00:26.426Z,21.20
2018-02-19T05:01:26.638Z,21.20
2018-02-19T05:02:26.839Z,21.10
2018-02-19T05:03:27.050Z,21.10
2018-02-19T05:04:27.260Z,21.10
2018-02-19T05:05:27.473Z,21.20
2018-02-19T05:06:27.685Z,21.20
2018-02-19T05:07:27.896Z,21.01
2018-02-19T05:08:28.107Z,21.10
2018-02-19T05:09:28.321Z,21.10
2018-02-19T05:10:28.529Z,21.20
2018-02-19T05:11:28.740Z,21.39
2018-02-19T05:12:28.951Z,21.20
2018-02-19T05:13:29.167Z,21.10
2018-02-19T05:14:29.374Z,21.20
2018-02-19T05:15:29.584Z,21.20
2018-02-19T05:16:29.796Z,21.10
2018-02-19T05:17:30.008Z,21.30
2018-02-19T05:18:30.218Z,20.91
2018-02-19T05:19:30.435Z,21.30
2018-02-19T05:20:30.640Z,21.10
2018-02-19T05:21:30.853Z,21.20
2018-02-19T05:22:31.064Z,21.30
2018-02-19T05:23:31.276Z,21.10
2018-02-19T05:24:31.487Z,21.10
2018-02-19T05:25:31.697Z,21.10
2018-02-19T05:26:31.908Z,21.20
2018-02-19T05:27:32.125Z,21.20
2018-02-19T05:28:32.331Z,21.20
2018-02-19T05:29:32.543Z,21.10
2018-02-19T05:30:32.756Z,21.10
2018-02-19T05:31:32.968Z,21.20
2018-02-19T05:32:33.180Z,21.10
2018-02-19T05:33:33.411Z,21.10
2018-02-19T05:34:33.605Z,21.01
2018-02-19T05:35:33.817Z,21.10
2018-02-19T05:36:34.028Z,21.20
2018-02-19T05:37:34.240Z,21.10
2018-02-19T05:38:34.451Z,21.20
2018-02-19T05:39:34.671Z,21.20
2018-02-19T05:40:34.873Z,21.10
2018-02-19T05:41:35.085Z,21.20
2018-02-19T05:42:35.296Z,21.20
2018-02-19T05:43:35.506Z,21.30
2018-02-19T05:44:35.720Z,21.10
2018-02-19T05:45:35.933Z,21.30
2018-02-19T05:46:36.141Z,21.20
2018-02-19T05:47:36.365Z,21.20
2018-02-19T05:48:36.564Z,21.30
2018-02-19T05:49:36.779Z,21.20
2018-02-19T05:50:36.987Z,21.10
2018-02-19T05:51:37.203Z,21.10
2018-02-19T05:52:37.410Z,21.20
2018-02-19T05:53:37.635Z,21.10
2018-02-19T05:54:37.843Z,21.01
2018-02-19T05:55:38.055Z,21.20
2018-02-19T05:56:38.267Z,21.10
2018-02-19T05:57:38.478Z,21.01
2018-02-19T06:00:00.664Z,21.30
2018-02-19T06:00:00.973Z,21.01
2018-02-19T06:00:39.136Z,21.30
2018-02-19T06:01:40.174Z,21.10
2018-02-19T06:02:39.552Z,21.20
2018-02-19T06:03:39.763Z,21.10
2018-02-19T06:04:39.994Z,21.20
2018-02-19T06:05:40.169Z,21.10
2018-02-19T06:06:40.382Z,21.20
2018-02-19T06:07:40.594Z,21.01
2018-02-19T06:08:40.805Z,21.10
2018-02-19T06:09:41.020Z,21.20
2018-02-19T06:10:41.240Z,21.30
2018-02-19T06:11:41.438Z,21.30
2018-02-19T06:12:41.649Z,21.01
2018-02-19T06:13:42.667Z,21.10
2018-02-19T06:14:42.074Z,21.01
2018-02-19T06:15:42.279Z,21.01
2018-02-19T06:16:42.500Z,21.10
2018-02-19T06:17:42.729Z,21.01
2018-02-19T06:18:42.925Z,20.91
2018-02-19T06:19:43.134Z,21.01
2018-02-19T06:20:43.356Z,21.01
2018-02-19T06:21:43.557Z,21.01
2018-02-19T06:22:43.771Z,21.20
2018-02-19T06:23:43.978Z,21.20
2018-02-19T06:24:44.210Z,21.20
2018-02-19T06:25:45.177Z,21.20
2018-02-19T06:26:44.720Z,21.20
2018-02-19T06:27:44.940Z,21.20
2018-02-19T06:28:45.146Z,21.20
2018-02-19T06:29:45.352Z,21.10
2018-02-19T06:30:45.582Z,21.01
2018-02-19T06:31:46.671Z,21.01
2018-02-19T06:32:45.987Z,21.30
2018-02-19T06:33:46.193Z,21.01
2018-02-19T06:34:46.408Z,21.20
2018-02-19T06:35:46.624Z,20.91
2018-02-19T06:36:46.836Z,21.01
2018-02-19T06:37:47.042Z,21.10
2018-02-19T06:38:47.253Z,20.91
2018-02-19T06:39:47.465Z,21.10
2018-02-19T06:40:47.682Z,21.30
2018-02-19T06:41:47.889Z,21.01
2018-02-19T06:42:48.103Z,20.91
2018-02-19T06:43:48.309Z,21.01
2018-02-19T06:44:48.523Z,21.30
2018-02-19T06:45:48.734Z,21.01
2018-02-19T06:46:48.949Z,21.01
2018-02-19T06:47:49.156Z,21.10
2018-02-19T06:48:49.368Z,21.10
2018-02-19T06:49:49.579Z,21.01
2018-02-19T06:50:49.794Z,21.01
2018-02-19T06:51:50.732Z,21.10
2018-02-19T06:52:50.197Z,21.10
2018-02-19T06:53:50.413Z,20.91
2018-02-19T06:54:50.635Z,21.01
2018-02-19T06:55:50.845Z,21.20
2018-02-19T06:56:51.070Z,21.10
2018-02-19T06:57:52.183Z,21.01
2018-02-19T06:58:51.466Z,21.10
2018-02-19T06:59:51.689Z,21.20
2018-02-19T07:00:51.892Z,21.01
2018-02-19T07:01:53.678Z,21.10
2018-02-19T07:02:53.180Z,20.91
2018-02-19T07:03:52.717Z,21.10
2018-02-19T07:04:52.932Z,20.91
2018-02-19T07:05:53.686Z,21.01
2018-02-19T07:06:53.345Z,21.01
2018-02-19T07:07:53.917Z,21.30
2018-02-19T07:08:53.750Z,21.30
2018-02-19T07:09:53.992Z,21.30
2018-02-19T07:10:54.680Z,21.01
2018-02-19T07:11:54.365Z,21.01
2018-02-19T07:12:54.553Z,21.20
2018-02-19T07:13:55.139Z,21.30
2018-02-19T07:14:54.974Z,21.10
2018-02-19T07:15:55.180Z,21.30
2018-02-19T07:16:55.386Z,21.30
2018-02-19T07:17:55.599Z,21.01
2018-02-19T07:18:55.809Z,21.01
2018-02-19T07:19:56.681Z,21.01
2018-02-19T07:20:56.221Z,21.20
2018-02-19T07:21:57.188Z,21.01
2018-02-19T07:22:56.629Z,21.20
2018-02-19T07:23:56.831Z,21.20
2018-02-19T07:24:57.049Z,21.10
2018-02-19T07:25:57.264Z,21.10
2018-02-19T07:26:57.458Z,21.10
2018-02-19T07:27:57.665Z,21.20
2018-02-19T07:28:57.879Z,20.91
2018-02-19T07:29:58.368Z,20.91
2018-02-19T07:30:58.318Z,21.01
2018-02-19T07:31:58.521Z,21.01
2018-02-19T07:32:58.835Z,20.91
2018-02-19T07:33:59.686Z,20.91
2018-02-19T07:34:59.141Z,21.30
2018-02-19T07:35:59.361Z,21.20
2018-02-19T07:36:59.573Z,21.30
2018-02-19T07:37:59.774Z,21.10
2018-02-19T07:39:00.686Z,21.01
2018-02-19T07:40:00.200Z,20.91
2018-02-19T07:41:00.398Z,21.01
2018-02-19T07:42:00.605Z,21.01
2018-02-19T07:43:00.820Z,21.01
2018-02-19T07:44:01.018Z,21.01
2018-02-19T07:45:07.346Z,21.30
2018-02-19T07:46:07.711Z,21.39
2018-02-19T07:47:08.078Z,21.01
2018-02-19T07:48:08.440Z,21.20
2018-02-19T07:49:08.885Z,21.20
2018-02-19T07:50:09.040Z,21.10
2018-02-19T07:51:09.400Z,20.91
2018-02-19T07:52:03.651Z,21.01
2018-02-19T07:53:03.860Z,21.01
2018-02-19T07:54:04.387Z,21.01
2018-02-19T07:55:04.279Z,21.10
2018-02-19T07:56:04.491Z,20.91
2018-02-19T07:57:05.064Z,21.01
2018-02-19T07:58:05.241Z,21.01
2018-02-19T07:59:05.460Z,21.30
2018-02-19T08:02:36.597Z,21.48
2018-02-19T08:03:36.846Z,21.01
2018-02-19T08:04:36.663Z,20.91
2018-02-19T08:05:36.880Z,21.20
2018-02-19T08:06:37.091Z,21.68
2018-02-19T08:07:37.303Z,21.48
2018-02-19T08:08:37.515Z,21.10
2018-02-19T08:09:37.726Z,21.01
2018-02-19T08:10:37.937Z,21.20
2018-02-19T08:11:38.148Z,21.10
2018-02-19T08:12:38.359Z,21.01
2018-02-19T08:13:38.572Z,20.91
2018-02-19T08:14:38.781Z,21.01
2018-02-19T08:15:38.990Z,21.20
2018-02-19T08:16:39.204Z,21.10
2018-02-19T08:17:39.417Z,21.20
2018-02-19T08:18:39.629Z,21.20
2018-02-19T08:19:39.840Z,21.01
2018-02-19T08:20:40.053Z,21.10
2018-02-19T08:21:40.263Z,21.39
2018-02-19T08:22:40.482Z,20.91
2018-02-19T08:23:40.694Z,21.01
2018-02-19T08:24:40.954Z,21.39
2018-02-19T08:25:41.119Z,20.91
2018-02-19T08:26:41.330Z,21.01
2018-02-19T08:27:41.540Z,21.01
2018-02-19T08:28:41.752Z,21.01
2018-02-19T08:29:41.971Z,20.91
2018-02-19T08:30:42.174Z,21.10
2018-02-19T08:31:42.377Z,21.01
2018-02-19T08:32:42.623Z,21.48
2018-02-19T08:33:42.832Z,21.01
2018-02-19T08:34:43.043Z,20.81
2018-02-19T08:35:43.255Z,20.81
2018-02-19T08:36:43.459Z,20.91
2018-02-19T08:37:43.670Z,21.01
2018-02-19T08:38:43.881Z,21.39
2018-02-19T08:39:44.087Z,20.91
2018-02-19T08:40:44.301Z,21.48
2018-02-19T08:41:44.512Z,21.10
2018-02-19T08:42:44.721Z,20.81
2018-02-19T08:43:44.935Z,21.01
2018-02-19T08:44:45.145Z,20.91
2018-02-19T08:45:45.365Z,20.81
2018-02-19T08:46:45.568Z,20.81
2018-02-19T08:47:45.779Z,21.39
2018-02-19T08:48:45.994Z,20.91
2018-02-19T08:49:46.204Z,20.72
2018-02-19T08:52:16.968Z,21.39
2018-02-19T08:53:17.194Z,20.81
2018-02-19T08:54:17.391Z,20.91
2018-02-19T08:57:48.529Z,20.91
2018-02-19T09:00:12.888Z,20.91
2018-02-19T09:00:13.288Z,20.72
2018-02-19T09:00:49.395Z,20.91
2018-02-19T09:01:49.561Z,20.72
2018-02-19T09:02:50.016Z,20.91
2018-02-19T09:03:50.078Z,20.81
2018-02-19T09:04:50.196Z,20.91
2018-02-19T09:05:51.359Z,20.72
2018-02-19T09:06:50.610Z,20.81
2018-02-19T09:07:50.821Z,21.10
2018-02-19T09:08:51.031Z,20.72
2018-02-19T09:09:51.244Z,20.72
2018-02-19T09:10:51.457Z,21.30
2018-02-19T09:11:51.667Z,20.81
2018-02-19T09:12:51.878Z,21.01
2018-02-19T09:13:52.089Z,20.81
2018-02-19T09:14:52.301Z,21.30
2018-02-19T09:15:52.516Z,20.81
2018-02-19T09:16:52.719Z,20.72
2018-02-19T09:17:52.935Z,20.72
2018-02-19T09:18:53.146Z,21.30
2018-02-19T09:19:53.357Z,21.10
2018-02-19T09:20:53.568Z,20.91
2018-02-19T09:21:53.780Z,21.01
2018-02-19T09:22:53.994Z,20.81
2018-02-19T09:23:54.203Z,21.01
2018-02-19T09:24:54.412Z,20.72
2018-02-19T09:25:54.624Z,20.91
2018-02-19T09:26:54.837Z,21.10
2018-02-19T09:27:55.047Z,20.72
2018-02-19T09:28:55.267Z,20.83
2018-02-19T09:29:55.478Z,21.11
2018-02-19T09:30:55.690Z,20.34
2018-02-19T09:31:55.898Z,20.92
2018-02-19T09:32:56.110Z,20.43
2018-02-19T09:33:56.322Z,20.83
2018-02-19T09:34:56.534Z,20.92
2018-02-19T09:35:56.746Z,20.83
2018-02-19T09:36:56.956Z,20.34
2018-02-19T09:37:57.167Z,20.34
2018-02-19T09:38:57.380Z,20.53
2018-02-19T09:39:57.592Z,20.83
2018-02-19T09:40:57.800Z,20.83
2018-02-19T09:41:58.012Z,20.92
2018-02-19T09:42:58.224Z,20.43
2018-02-19T09:43:58.434Z,20.73
2018-02-19T09:44:58.645Z,20.83
2018-02-19T09:45:58.857Z,20.92
2018-02-19T09:46:59.072Z,20.83
2018-02-19T09:47:59.277Z,20.73
2018-02-19T09:48:59.491Z,20.83
2018-02-19T09:49:59.705Z,20.83
2018-02-19T09:50:59.916Z,21.01
2018-02-19T09:52:00.131Z,21.11
2018-02-19T09:53:00.393Z,20.73
2018-02-19T09:54:00.552Z,20.73
2018-02-19T09:55:00.746Z,20.92
2018-02-19T09:57:31.999Z,20.83
2018-02-19T10:00:02.909Z,20.83
2018-02-19T10:01:03.097Z,21.01
2018-02-19T10:02:03.327Z,20.83
2018-02-19T10:03:03.514Z,20.83
2018-02-19T10:04:03.717Z,20.92
2018-02-19T10:05:03.925Z,20.43
2018-02-19T10:06:04.136Z,20.73
2018-02-19T10:07:04.348Z,20.83
2018-02-19T10:08:04.566Z,20.83
2018-02-19T10:09:04.771Z,20.92
2018-02-19T10:10:05.001Z,21.01
2018-02-19T10:11:05.195Z,21.11
2018-02-19T10:12:05.414Z,20.73
2018-02-19T10:13:05.616Z,20.92
2018-02-19T10:14:05.827Z,20.83
2018-02-19T10:15:06.037Z,20.43
2018-02-19T10:16:06.248Z,20.63
2018-02-19T10:17:06.463Z,20.92
2018-02-19T10:18:06.669Z,20.73
2018-02-19T10:19:06.880Z,20.73
2018-02-19T10:20:07.091Z,20.92
2018-02-19T10:21:07.304Z,20.53
2018-02-19T10:22:07.514Z,20.83
2018-02-19T10:23:07.725Z,20.83
2018-02-19T10:24:07.936Z,20.53
2018-02-19T10:25:08.148Z,21.21
2018-02-19T10:26:08.358Z,20.43
2018-02-19T10:27:08.575Z,20.63
2018-02-19T10:28:08.782Z,21.11
2018-02-19T10:29:08.994Z,20.73
2018-02-19T10:30:09.205Z,21.01
2018-02-19T10:31:09.416Z,20.43
2018-02-19T10:32:09.624Z,20.83
2018-02-19T10:33:09.838Z,20.83
2018-02-19T10:34:16.158Z,20.83
2018-02-19T10:35:16.640Z,21.12
2018-02-19T10:36:10.649Z,20.74
2018-02-19T10:37:10.860Z,20.64
2018-02-19T10:38:17.183Z,20.54
2018-02-19T10:39:11.440Z,20.74
2018-02-19T10:40:11.640Z,20.83
2018-02-19T10:41:11.850Z,20.83
2018-02-19T10:42:12.061Z,21.22
2018-02-19T10:43:12.272Z,20.64
2018-02-19T10:44:14.324Z,21.03
2018-02-19T10:45:12.676Z,21.12
2018-02-19T10:46:12.904Z,21.12
2018-02-19T10:47:13.096Z,21.12
2018-02-19T10:48:13.310Z,20.83
2018-02-19T10:49:13.520Z,20.83
2018-02-19T10:50:13.732Z,21.12
2018-02-19T10:51:13.945Z,21.03
2018-02-19T10:52:14.154Z,20.64
2018-02-19T10:53:14.367Z,20.83
2018-02-19T10:54:14.589Z,20.74
2018-02-19T10:55:15.068Z,20.54
2018-02-19T10:56:15.001Z,20.54
2018-02-19T10:57:15.216Z,20.74
2018-02-19T10:58:15.426Z,21.12
2018-02-19T10:59:15.639Z,21.03
2018-02-19T11:00:15.850Z,21.12
2018-02-19T11:01:16.067Z,21.22
2018-02-19T11:02:16.279Z,21.12
2018-02-19T11:03:16.493Z,21.11
2018-02-19T11:04:16.701Z,21.11
2018-02-19T11:05:16.913Z,21.03
2018-02-19T11:06:17.124Z,21.21
2018-02-19T11:07:18.257Z,21.11
2018-02-19T11:08:17.542Z,21.21
2018-02-19T11:09:17.754Z,21.01
2018-02-19T11:10:17.968Z,21.01
2018-02-19T11:11:18.177Z,20.92
2018-02-19T11:12:18.388Z,21.40
2018-02-19T11:13:18.613Z,21.12
2018-02-19T11:14:18.811Z,22.08
2018-02-19T11:15:19.023Z,21.21
2018-02-19T11:16:19.235Z,21.31
2018-02-19T11:17:20.260Z,21.79
2018-02-19T11:18:19.658Z,21.40
2018-02-19T11:19:19.866Z,21.98
2018-02-19T11:20:20.077Z,21.31
2018-02-19T11:21:20.292Z,21.40
2018-02-19T11:22:20.504Z,21.50
2018-02-19T11:23:21.324Z,21.69
2018-02-19T11:24:20.915Z,21.98
2018-02-19T11:25:21.126Z,22.08
2018-02-19T11:26:21.338Z,21.21
2018-02-19T11:27:21.549Z,21.31
2018-02-19T11:28:21.761Z,21.50
2018-02-19T11:29:21.972Z,21.31
2018-02-19T11:30:22.184Z,21.98
2018-02-19T11:31:22.391Z,22.36
2018-02-19T11:32:23.362Z,22.36
2018-02-19T11:33:22.884Z,21.98
2018-02-19T11:34:23.097Z,22.09
2018-02-19T11:35:23.309Z,22.08
2018-02-19T11:36:23.525Z,22.27
2018-02-19T11:37:24.336Z,22.08
2018-02-19T11:38:24.822Z,21.98
2018-02-19T11:39:24.766Z,22.36
2018-02-19T11:40:24.333Z,22.56
2018-02-19T11:41:25.268Z,21.40
2018-02-19T11:42:25.276Z,21.40
2018-02-19T11:43:24.943Z,22.08
2018-02-19T11:44:25.176Z,21.40
2018-02-19T11:45:25.378Z,21.31
2018-02-19T11:46:25.585Z,21.88
2018-02-19T11:47:25.799Z,22.08
2018-02-19T11:48:26.790Z,21.50
2018-02-19T11:49:26.212Z,21.98
2018-02-19T11:50:26.416Z,21.79
2018-02-19T11:51:26.648Z,21.88
2018-02-19T11:52:26.862Z,21.98
2018-02-19T11:53:27.771Z,21.79
2018-02-19T11:54:27.796Z,22.08
2018-02-19T11:55:27.496Z,22.36
2018-02-19T11:56:27.716Z,22.27
2018-02-19T11:57:28.775Z,22.08
2018-02-19T11:58:28.137Z,22.08
2018-02-19T11:59:28.351Z,21.79
2018-02-19T12:00:28.547Z,21.88
2018-02-19T12:01:28.763Z,21.98
2018-02-19T12:02:28.972Z,22.27
2018-02-19T12:03:29.770Z,21.98
2018-02-19T12:04:29.381Z,22.08
2018-02-19T12:05:29.584Z,22.17
2018-02-19T12:06:29.805Z,22.27
2018-02-19T12:07:30.772Z,21.88
2018-02-19T12:08:30.236Z,21.40
2018-02-19T12:09:31.282Z,21.40
2018-02-19T12:10:31.271Z,21.98
2018-02-19T12:11:30.858Z,21.79
2018-02-19T12:12:31.035Z,22.08
2018-02-19T12:13:31.770Z,21.21
2018-02-19T12:14:32.374Z,21.88
2018-02-19T12:15:31.668Z,21.88
2018-02-19T12:16:32.773Z,21.88
2018-02-19T12:17:32.081Z,21.98
2018-02-19T12:18:32.296Z,21.88
2018-02-19T12:19:32.500Z,22.46
2018-02-19T12:20:32.727Z,22.27
2018-02-19T12:21:32.925Z,22.36
2018-02-19T12:22:33.772Z,22.36
2018-02-19T12:23:34.304Z,22.08
2018-02-19T12:24:33.528Z,21.98
2018-02-19T12:25:33.752Z,22.17
2018-02-19T12:26:33.954Z,22.17
2018-02-19T12:27:34.778Z,21.88
2018-02-19T12:28:34.372Z,21.98
2018-02-19T12:29:34.579Z,21.98
2018-02-19T12:30:35.277Z,21.98
2018-02-19T12:31:35.777Z,21.88
2018-02-19T12:32:35.774Z,21.88
2018-02-19T12:33:35.467Z,21.88
2018-02-19T12:34:36.274Z,21.69
2018-02-19T12:35:35.898Z,21.98
2018-02-19T12:36:36.063Z,21.79
2018-02-19T12:37:36.291Z,21.79
2018-02-19T12:38:36.490Z,21.79
2018-02-19T12:39:36.706Z,21.79
2018-02-19T12:40:36.954Z,22.17
2018-02-19T12:41:37.134Z,22.27
2018-02-19T12:42:37.334Z,21.50
2018-02-19T12:43:37.547Z,21.50
2018-02-19T12:44:37.766Z,21.21
2018-02-19T12:45:38.792Z,21.40
2018-02-19T12:46:38.876Z,21.31
2018-02-19T12:47:38.405Z,21.40
2018-02-19T12:48:38.591Z,22.27
2018-02-19T12:49:39.779Z,21.50
2018-02-19T12:50:39.024Z,21.31
2018-02-19T12:51:39.241Z,22.08
2018-02-19T12:52:39.461Z,21.50
2018-02-19T12:53:39.677Z,21.40
2018-02-19T12:54:40.794Z,21.40
2018-02-19T12:55:40.818Z,21.50
2018-02-19T12:56:40.337Z,21.59
2018-02-19T12:57:40.532Z,21.40
2018-02-19T12:58:40.733Z,21.50
2018-02-19T12:59:40.948Z,21.50
2018-02-19T13:00:41.157Z,21.50
2018-02-19T13:01:41.370Z,21.31
2018-02-19T13:02:41.611Z,21.40
2018-02-19T13:03:41.790Z,21.40
2018-02-19T13:04:41.992Z,21.69
2018-02-19T13:05:42.782Z,21.31
2018-02-19T13:06:42.416Z,21.59
2018-02-19T13:07:42.630Z,21.40
2018-02-19T13:08:42.841Z,22.08
2018-02-19T13:09:43.055Z,21.79